sensor_id;sensor_type;location;lat;lon;timestamp;P1;durP1;ratioP1;P2;durP2;ratioP2
20699;SDS011;10511;51.232;9.420;2022-09-21T00:01:57;1.00;;;1.00;;
20699;SDS011;10511;51.232;9.420;2022-09-21T00:04:24;0.97;;;0.97;;
20699;SDS011;10511;51.232;9.420;2022-09-21T00:06:50;0.93;;;0.93;;
20699;SDS011;10511;51.232;9.420;2022-09-21T00:09:19;1.00;;;1.00;;
20699;SDS011;10511;51.232;9.420;2022-09-21T00:11:46;1.00;;;1.00;;
20699;SDS011;10511;51.232;9.420;2022-09-21T00:14:13;1.00;;;1.00;;
20699;SDS011;10511;51.232;9.420;2022-09-21T00:16:40;1.00;;;1.00;;
20699;SDS011;10511;51.232;9.420;2022-09-21T00:19:08;1.10;;;1.10;;
20699;SDS011;10511;51.232;9.420;2022-09-21T00:21:36;1.00;;;1.00;;
20699;SDS011;10511;51.232;9.420;2022-09-21T00:24:03;1.00;;;1.00;;
20699;SDS011;10511;51.232;9.420;2022-09-21T00:26:32;1.00;;;1.00;;
20699;SDS011;10511;51.232;9.420;2022-09-21T00:29:00;1.00;;;1.00;;
20699;SDS011;10511;51.232;9.420;2022-09-21T00:31:28;1.00;;;1.00;;
20699;SDS011;10511;51.232;9.420;2022-09-21T00:33:56;1.00;;;1.00;;
20699;SDS011;10511;51.232;9.420;2022-09-21T00:36:24;1.00;;;1.00;;
20699;SDS011;10511;51.232;9.420;2022-09-21T00:38:51;1.00;;;1.00;;
20699;SDS011;10511;51.232;9.420;2022-09-21T00:41:20;1.00;;;1.00;;
20699;SDS011;10511;51.232;9.420;2022-09-21T00:44:23;1.00;;;1.00;;
20699;SDS011;10511;51.232;9.420;2022-09-21T00:46:48;1.10;;;1.10;;
20699;SDS011;10511;51.232;9.420;2022-09-21T00:49:18;1.00;;;1.00;;
20699;SDS011;10511;51.232;9.420;2022-09-21T00:51:46;0.90;;;0.90;;
20699;SDS011;10511;51.232;9.420;2022-09-21T00:54:15;0.90;;;0.90;;
20699;SDS011;10511;51.232;9.420;2022-09-21T00:56:45;1.00;;;1.00;;
20699;SDS011;10511;51.232;9.420;2022-09-21T00:59:14;1.00;;;1.00;;
20699;SDS011;10511;51.232;9.420;2022-09-21T01:01:43;1.00;;;1.00;;
20699;SDS011;10511;51.232;9.420;2022-09-21T01:04:10;1.00;;;1.00;;
20699;SDS011;10511;51.232;9.420;2022-09-21T01:06:38;0.90;;;0.90;;
20699;SDS011;10511;51.232;9.420;2022-09-21T01:09:06;0.97;;;0.97;;
20699;SDS011;10511;51.232;9.420;2022-09-21T01:11:35;1.00;;;1.00;;
20699;SDS011;10511;51.232;9.420;2022-09-21T01:17:08;0.90;;;0.90;;
20699;SDS011;10511;51.232;9.420;2022-09-21T01:19:50;1.00;;;1.00;;
20699;SDS011;10511;51.232;9.420;2022-09-21T01:22:34;0.93;;;0.93;;
20699;SDS011;10511;51.232;9.420;2022-09-21T01:25:13;0.90;;;0.90;;
20699;SDS011;10511;51.232;9.420;2022-09-21T01:27:55;0.90;;;0.90;;
20699;SDS011;10511;51.232;9.420;2022-09-21T01:30:30;0.90;;;0.90;;
20699;SDS011;10511;51.232;9.420;2022-09-21T01:33:02;0.90;;;0.90;;
20699;SDS011;10511;51.232;9.420;2022-09-21T01:35:34;0.90;;;0.90;;
20699;SDS011;10511;51.232;9.420;2022-09-21T01:38:05;0.97;;;0.97;;
20699;SDS011;10511;51.232;9.420;2022-09-21T01:40:37;1.07;;;1.07;;
20699;SDS011;10511;51.232;9.420;2022-09-21T01:43:08;0.97;;;0.97;;
20699;SDS011;10511;51.232;9.420;2022-09-21T01:45:41;0.90;;;0.90;;
20699;SDS011;10511;51.232;9.420;2022-09-21T01:48:12;1.00;;;1.00;;
20699;SDS011;10511;51.232;9.420;2022-09-21T01:50:42;0.90;;;0.90;;
20699;SDS011;10511;51.232;9.420;2022-09-21T01:53:12;0.90;;;0.90;;
20699;SDS011;10511;51.232;9.420;2022-09-21T01:55:44;1.00;;;1.00;;
20699;SDS011;10511;51.232;9.420;2022-09-21T01:58:15;0.90;;;0.90;;
20699;SDS011;10511;51.232;9.420;2022-09-21T02:00:51;0.97;;;0.97;;
20699;SDS011;10511;51.232;9.420;2022-09-21T02:03:22;0.90;;;0.90;;
20699;SDS011;10511;51.232;9.420;2022-09-21T02:05:55;1.00;;;1.00;;
20699;SDS011;10511;51.232;9.420;2022-09-21T02:08:23;0.97;;;0.97;;
20699;SDS011;10511;51.232;9.420;2022-09-21T02:10:52;0.90;;;0.90;;
20699;SDS011;10511;51.232;9.420;2022-09-21T02:13:21;0.90;;;0.90;;
20699;SDS011;10511;51.232;9.420;2022-09-21T02:16:00;1.00;;;1.00;;
20699;SDS011;10511;51.232;9.420;2022-09-21T02:18:36;1.00;;;1.00;;
20699;SDS011;10511;51.232;9.420;2022-09-21T02:21:12;0.90;;;0.90;;
20699;SDS011;10511;51.232;9.420;2022-09-21T02:23:47;1.00;;;1.00;;
20699;SDS011;10511;51.232;9.420;2022-09-21T02:26:25;0.90;;;0.90;;
20699;SDS011;10511;51.232;9.420;2022-09-21T02:28:59;0.90;;;0.90;;
20699;SDS011;10511;51.232;9.420;2022-09-21T02:31:35;1.00;;;1.00;;
20699;SDS011;10511;51.232;9.420;2022-09-21T02:34:12;0.90;;;0.90;;
20699;SDS011;10511;51.232;9.420;2022-09-21T02:36:45;1.00;;;1.00;;
20699;SDS011;10511;51.232;9.420;2022-09-21T02:39:16;1.03;;;1.03;;
20699;SDS011;10511;51.232;9.420;2022-09-21T02:41:49;0.97;;;0.97;;
20699;SDS011;10511;51.232;9.420;2022-09-21T02:44:27;1.00;;;1.00;;
20699;SDS011;10511;51.232;9.420;2022-09-21T02:47:00;1.10;;;1.10;;
20699;SDS011;10511;51.232;9.420;2022-09-21T02:49:34;1.10;;;1.10;;
20699;SDS011;10511;51.232;9.420;2022-09-21T02:52:05;1.10;;;1.10;;
20699;SDS011;10511;51.232;9.420;2022-09-21T02:54:35;1.00;;;1.00;;
20699;SDS011;10511;51.232;9.420;2022-09-21T02:57:05;1.10;;;1.10;;
20699;SDS011;10511;51.232;9.420;2022-09-21T02:59:33;1.10;;;1.10;;
20699;SDS011;10511;51.232;9.420;2022-09-21T03:02:01;1.07;;;1.07;;
20699;SDS011;10511;51.232;9.420;2022-09-21T03:04:28;1.00;;;1.00;;
20699;SDS011;10511;51.232;9.420;2022-09-21T03:06:56;1.10;;;1.10;;
20699;SDS011;10511;51.232;9.420;2022-09-21T03:09:23;1.10;;;1.10;;
20699;SDS011;10511;51.232;9.420;2022-09-21T03:11:50;1.00;;;1.00;;
20699;SDS011;10511;51.232;9.420;2022-09-21T03:14:18;1.00;;;1.00;;
20699;SDS011;10511;51.232;9.420;2022-09-21T03:16:44;1.10;;;1.10;;
20699;SDS011;10511;51.232;9.420;2022-09-21T03:19:13;1.00;;;1.00;;
20699;SDS011;10511;51.232;9.420;2022-09-21T03:21:40;1.10;;;1.10;;
20699;SDS011;10511;51.232;9.420;2022-09-21T03:24:07;1.00;;;1.00;;
20699;SDS011;10511;51.232;9.420;2022-09-21T03:26:34;1.10;;;1.10;;
20699;SDS011;10511;51.232;9.420;2022-09-21T03:29:01;1.10;;;1.10;;
20699;SDS011;10511;51.232;9.420;2022-09-21T03:31:29;1.10;;;1.10;;
20699;SDS011;10511;51.232;9.420;2022-09-21T03:33:56;1.17;;;1.17;;
20699;SDS011;10511;51.232;9.420;2022-09-21T03:36:25;1.10;;;1.10;;
20699;SDS011;10511;51.232;9.420;2022-09-21T03:38:51;1.10;;;1.10;;
20699;SDS011;10511;51.232;9.420;2022-09-21T03:41:18;1.20;;;1.20;;
20699;SDS011;10511;51.232;9.420;2022-09-21T03:43:45;1.10;;;1.10;;
20699;SDS011;10511;51.232;9.420;2022-09-21T03:46:12;1.20;;;1.20;;
20699;SDS011;10511;51.232;9.420;2022-09-21T03:48:41;1.10;;;1.10;;
20699;SDS011;10511;51.232;9.420;2022-09-21T03:51:11;1.00;;;1.00;;
20699;SDS011;10511;51.232;9.420;2022-09-21T03:53:39;1.10;;;1.10;;
20699;SDS011;10511;51.232;9.420;2022-09-21T03:56:06;1.03;;;1.03;;
20699;SDS011;10511;51.232;9.420;2022-09-21T03:58:33;1.00;;;1.00;;
20699;SDS011;10511;51.232;9.420;2022-09-21T04:01:00;1.10;;;1.10;;
20699;SDS011;10511;51.232;9.420;2022-09-21T04:03:28;1.10;;;1.10;;
20699;SDS011;10511;51.232;9.420;2022-09-21T04:05:55;1.00;;;1.00;;
20699;SDS011;10511;51.232;9.420;2022-09-21T04:08:22;1.00;;;1.00;;
20699;SDS011;10511;51.232;9.420;2022-09-21T04:10:50;1.00;;;1.00;;
20699;SDS011;10511;51.232;9.420;2022-09-21T04:13:17;1.10;;;1.10;;
20699;SDS011;10511;51.232;9.420;2022-09-21T04:15:44;1.10;;;1.10;;
20699;SDS011;10511;51.232;9.420;2022-09-21T04:18:10;1.10;;;1.10;;
20699;SDS011;10511;51.232;9.420;2022-09-21T04:20:37;1.10;;;1.10;;
20699;SDS011;10511;51.232;9.420;2022-09-21T04:23:05;1.00;;;1.00;;
20699;SDS011;10511;51.232;9.420;2022-09-21T04:25:33;1.00;;;1.00;;
20699;SDS011;10511;51.232;9.420;2022-09-21T04:28:01;1.00;;;1.00;;
20699;SDS011;10511;51.232;9.420;2022-09-21T04:30:28;1.00;;;1.00;;
20699;SDS011;10511;51.232;9.420;2022-09-21T04:32:57;1.00;;;1.00;;
20699;SDS011;10511;51.232;9.420;2022-09-21T04:35:24;1.00;;;1.00;;
20699;SDS011;10511;51.232;9.420;2022-09-21T04:37:53;1.10;;;1.10;;
20699;SDS011;10511;51.232;9.420;2022-09-21T04:40:20;1.00;;;1.00;;
20699;SDS011;10511;51.232;9.420;2022-09-21T04:42:49;1.10;;;1.10;;
20699;SDS011;10511;51.232;9.420;2022-09-21T04:45:18;1.00;;;1.00;;
20699;SDS011;10511;51.232;9.420;2022-09-21T04:47:45;1.10;;;1.10;;
20699;SDS011;10511;51.232;9.420;2022-09-21T04:50:12;1.10;;;1.10;;
20699;SDS011;10511;51.232;9.420;2022-09-21T04:52:39;1.10;;;1.10;;
20699;SDS011;10511;51.232;9.420;2022-09-21T04:55:06;1.00;;;1.00;;
20699;SDS011;10511;51.232;9.420;2022-09-21T04:57:34;1.00;;;1.00;;
20699;SDS011;10511;51.232;9.420;2022-09-21T05:00:01;1.00;;;1.00;;
20699;SDS011;10511;51.232;9.420;2022-09-21T05:02:30;1.00;;;1.00;;
20699;SDS011;10511;51.232;9.420;2022-09-21T05:04:57;1.00;;;1.00;;
20699;SDS011;10511;51.232;9.420;2022-09-21T05:07:23;0.90;;;0.90;;
20699;SDS011;10511;51.232;9.420;2022-09-21T05:09:50;0.90;;;0.90;;
20699;SDS011;10511;51.232;9.420;2022-09-21T05:12:28;1.00;;;1.00;;
20699;SDS011;10511;51.232;9.420;2022-09-21T05:14:55;1.00;;;1.00;;
20699;SDS011;10511;51.232;9.420;2022-09-21T05:17:22;0.90;;;0.90;;
20699;SDS011;10511;51.232;9.420;2022-09-21T05:19:51;0.90;;;0.90;;
20699;SDS011;10511;51.232;9.420;2022-09-21T05:22:18;0.90;;;0.90;;
20699;SDS011;10511;51.232;9.420;2022-09-21T05:24:46;0.90;;;0.90;;
20699;SDS011;10511;51.232;9.420;2022-09-21T05:27:13;1.00;;;1.00;;
20699;SDS011;10511;51.232;9.420;2022-09-21T05:29:40;1.00;;;1.00;;
20699;SDS011;10511;51.232;9.420;2022-09-21T05:32:10;1.00;;;1.00;;
20699;SDS011;10511;51.232;9.420;2022-09-21T05:34:55;1.00;;;1.00;;
20699;SDS011;10511;51.232;9.420;2022-09-21T05:37:35;1.00;;;1.00;;
20699;SDS011;10511;51.232;9.420;2022-09-21T05:40:09;1.00;;;1.00;;
20699;SDS011;10511;51.232;9.420;2022-09-21T05:42:38;1.00;;;1.00;;
20699;SDS011;10511;51.232;9.420;2022-09-21T05:45:06;1.00;;;1.00;;
20699;SDS011;10511;51.232;9.420;2022-09-21T05:47:38;1.00;;;1.00;;
20699;SDS011;10511;51.232;9.420;2022-09-21T05:50:16;1.10;;;1.10;;
20699;SDS011;10511;51.232;9.420;2022-09-21T05:52:55;1.00;;;1.00;;
20699;SDS011;10511;51.232;9.420;2022-09-21T05:55:31;1.00;;;1.00;;
20699;SDS011;10511;51.232;9.420;2022-09-21T05:58:09;1.10;;;1.10;;
20699;SDS011;10511;51.232;9.420;2022-09-21T06:00:48;1.10;;;1.10;;
20699;SDS011;10511;51.232;9.420;2022-09-21T06:03:25;1.00;;;1.00;;
20699;SDS011;10511;51.232;9.420;2022-09-21T06:05:55;1.10;;;1.10;;
20699;SDS011;10511;51.232;9.420;2022-09-21T06:08:22;1.00;;;1.00;;
20699;SDS011;10511;51.232;9.420;2022-09-21T06:10:49;1.00;;;1.00;;
20699;SDS011;10511;51.232;9.420;2022-09-21T06:13:17;1.00;;;1.00;;
20699;SDS011;10511;51.232;9.420;2022-09-21T06:15:44;1.10;;;1.10;;
20699;SDS011;10511;51.232;9.420;2022-09-21T06:18:11;1.00;;;1.00;;
20699;SDS011;10511;51.232;9.420;2022-09-21T06:20:38;1.00;;;1.00;;
20699;SDS011;10511;51.232;9.420;2022-09-21T06:23:06;1.10;;;1.10;;
20699;SDS011;10511;51.232;9.420;2022-09-21T06:25:34;1.00;;;1.00;;
20699;SDS011;10511;51.232;9.420;2022-09-21T06:28:02;1.10;;;1.10;;
20699;SDS011;10511;51.232;9.420;2022-09-21T06:30:30;1.10;;;1.10;;
20699;SDS011;10511;51.232;9.420;2022-09-21T06:32:58;1.10;;;1.10;;
20699;SDS011;10511;51.232;9.420;2022-09-21T06:35:26;1.10;;;1.10;;
20699;SDS011;10511;51.232;9.420;2022-09-21T06:37:56;1.03;;;1.03;;
20699;SDS011;10511;51.232;9.420;2022-09-21T06:40:25;1.00;;;1.00;;
20699;SDS011;10511;51.232;9.420;2022-09-21T06:42:54;1.10;;;1.10;;
20699;SDS011;10511;51.232;9.420;2022-09-21T06:45:22;1.10;;;1.10;;
20699;SDS011;10511;51.232;9.420;2022-09-21T06:47:49;1.10;;;1.10;;
20699;SDS011;10511;51.232;9.420;2022-09-21T06:50:16;1.00;;;1.00;;
20699;SDS011;10511;51.232;9.420;2022-09-21T06:52:43;1.10;;;1.10;;
20699;SDS011;10511;51.232;9.420;2022-09-21T06:55:10;1.10;;;1.10;;
20699;SDS011;10511;51.232;9.420;2022-09-21T06:57:39;1.07;;;1.07;;
20699;SDS011;10511;51.232;9.420;2022-09-21T07:00:08;1.00;;;1.00;;
20699;SDS011;10511;51.232;9.420;2022-09-21T07:02:36;1.10;;;1.10;;
20699;SDS011;10511;51.232;9.420;2022-09-21T07:05:04;1.10;;;1.10;;
20699;SDS011;10511;51.232;9.420;2022-09-21T07:07:31;1.10;;;1.10;;
20699;SDS011;10511;51.232;9.420;2022-09-21T07:09:58;1.07;;;1.07;;
20699;SDS011;10511;51.232;9.420;2022-09-21T07:12:26;1.10;;;1.10;;
20699;SDS011;10511;51.232;9.420;2022-09-21T07:14:55;1.03;;;1.03;;
20699;SDS011;10511;51.232;9.420;2022-09-21T07:17:21;1.10;;;1.10;;
20699;SDS011;10511;51.232;9.420;2022-09-21T07:19:48;1.10;;;1.10;;
20699;SDS011;10511;51.232;9.420;2022-09-21T07:22:15;1.00;;;1.00;;
20699;SDS011;10511;51.232;9.420;2022-09-21T07:24:42;1.03;;;1.03;;
20699;SDS011;10511;51.232;9.420;2022-09-21T07:27:09;1.20;;;1.20;;
20699;SDS011;10511;51.232;9.420;2022-09-21T07:29:36;1.10;;;1.10;;
20699;SDS011;10511;51.232;9.420;2022-09-21T07:32:04;1.10;;;1.10;;
20699;SDS011;10511;51.232;9.420;2022-09-21T07:34:33;1.00;;;1.00;;
20699;SDS011;10511;51.232;9.420;2022-09-21T07:37:00;1.00;;;1.00;;
20699;SDS011;10511;51.232;9.420;2022-09-21T07:39:27;1.10;;;1.10;;
20699;SDS011;10511;51.232;9.420;2022-09-21T07:41:55;1.07;;;1.07;;
20699;SDS011;10511;51.232;9.420;2022-09-21T07:44:24;1.00;;;1.00;;
20699;SDS011;10511;51.232;9.420;2022-09-21T07:46:51;1.10;;;1.10;;
20699;SDS011;10511;51.232;9.420;2022-09-21T07:49:19;1.00;;;1.00;;
20699;SDS011;10511;51.232;9.420;2022-09-21T07:51:46;1.00;;;1.00;;
20699;SDS011;10511;51.232;9.420;2022-09-21T07:54:13;1.00;;;1.00;;
20699;SDS011;10511;51.232;9.420;2022-09-21T07:56:40;0.90;;;0.90;;
20699;SDS011;10511;51.232;9.420;2022-09-21T07:59:27;0.90;;;0.90;;
20699;SDS011;10511;51.232;9.420;2022-09-21T08:01:56;1.00;;;1.00;;
20699;SDS011;10511;51.232;9.420;2022-09-21T08:04:24;1.00;;;1.00;;
20699;SDS011;10511;51.232;9.420;2022-09-21T08:06:51;1.00;;;1.00;;
20699;SDS011;10511;51.232;9.420;2022-09-21T08:09:18;1.00;;;1.00;;
20699;SDS011;10511;51.232;9.420;2022-09-21T08:11:44;1.10;;;1.10;;
20699;SDS011;10511;51.232;9.420;2022-09-21T08:14:11;1.00;;;1.00;;
20699;SDS011;10511;51.232;9.420;2022-09-21T08:16:43;1.10;;;1.10;;
20699;SDS011;10511;51.232;9.420;2022-09-21T08:19:10;1.00;;;1.00;;
20699;SDS011;10511;51.232;9.420;2022-09-21T08:21:39;1.10;;;1.10;;
20699;SDS011;10511;51.232;9.420;2022-09-21T08:24:06;1.03;;;1.03;;
20699;SDS011;10511;51.232;9.420;2022-09-21T08:26:33;1.10;;;1.10;;
20699;SDS011;10511;51.232;9.420;2022-09-21T08:29:00;1.00;;;1.00;;
20699;SDS011;10511;51.232;9.420;2022-09-21T08:31:27;1.00;;;1.00;;
20699;SDS011;10511;51.232;9.420;2022-09-21T08:33:55;1.10;;;1.10;;
20699;SDS011;10511;51.232;9.420;2022-09-21T08:36:22;1.10;;;1.10;;
20699;SDS011;10511;51.232;9.420;2022-09-21T08:38:51;1.00;;;1.00;;
20699;SDS011;10511;51.232;9.420;2022-09-21T08:41:19;1.00;;;1.00;;
20699;SDS011;10511;51.232;9.420;2022-09-21T08:43:50;1.10;;;1.10;;
20699;SDS011;10511;51.232;9.420;2022-09-21T08:46:19;0.90;;;0.90;;
20699;SDS011;10511;51.232;9.420;2022-09-21T08:48:49;1.00;;;1.00;;
20699;SDS011;10511;51.232;9.420;2022-09-21T08:51:20;1.00;;;1.00;;
20699;SDS011;10511;51.232;9.420;2022-09-21T08:53:52;1.00;;;1.00;;
20699;SDS011;10511;51.232;9.420;2022-09-21T08:56:23;1.00;;;1.00;;
20699;SDS011;10511;51.232;9.420;2022-09-21T08:58:51;1.00;;;1.00;;
20699;SDS011;10511;51.232;9.420;2022-09-21T09:04:15;1.00;;;1.00;;
20699;SDS011;10511;51.232;9.420;2022-09-21T09:06:56;1.00;;;1.00;;
20699;SDS011;10511;51.232;9.420;2022-09-21T09:09:43;1.00;;;1.00;;
20699;SDS011;10511;51.232;9.420;2022-09-21T09:12:27;1.00;;;1.00;;
20699;SDS011;10511;51.232;9.420;2022-09-21T09:15:06;1.00;;;1.00;;
20699;SDS011;10511;51.232;9.420;2022-09-21T09:17:45;1.00;;;1.00;;
20699;SDS011;10511;51.232;9.420;2022-09-21T09:20:18;1.20;;;1.20;;
20699;SDS011;10511;51.232;9.420;2022-09-21T09:22:49;1.00;;;1.00;;
20699;SDS011;10511;51.232;9.420;2022-09-21T09:25:26;1.07;;;1.07;;
20699;SDS011;10511;51.232;9.420;2022-09-21T09:28:04;1.00;;;1.00;;
20699;SDS011;10511;51.232;9.420;2022-09-21T09:30:45;1.00;;;1.00;;
20699;SDS011;10511;51.232;9.420;2022-09-21T09:33:18;0.90;;;0.90;;
20699;SDS011;10511;51.232;9.420;2022-09-21T09:35:48;0.90;;;0.90;;
20699;SDS011;10511;51.232;9.420;2022-09-21T09:38:20;0.90;;;0.90;;
20699;SDS011;10511;51.232;9.420;2022-09-21T09:40:58;1.00;;;1.00;;
20699;SDS011;10511;51.232;9.420;2022-09-21T09:43:40;0.90;;;0.90;;
20699;SDS011;10511;51.232;9.420;2022-09-21T09:46:18;1.00;;;1.00;;
20699;SDS011;10511;51.232;9.420;2022-09-21T09:49:04;1.00;;;1.00;;
20699;SDS011;10511;51.232;9.420;2022-09-21T09:51:40;0.90;;;0.90;;
20699;SDS011;10511;51.232;9.420;2022-09-21T09:54:11;0.97;;;0.97;;
20699;SDS011;10511;51.232;9.420;2022-09-21T09:56:42;1.00;;;1.00;;
20699;SDS011;10511;51.232;9.420;2022-09-21T09:59:11;1.00;;;1.00;;
20699;SDS011;10511;51.232;9.420;2022-09-21T10:01:44;1.00;;;1.00;;
20699;SDS011;10511;51.232;9.420;2022-09-21T10:04:23;0.90;;;0.90;;
20699;SDS011;10511;51.232;9.420;2022-09-21T10:06:50;1.10;;;1.10;;
20699;SDS011;10511;51.232;9.420;2022-09-21T10:09:18;1.00;;;1.00;;
20699;SDS011;10511;51.232;9.420;2022-09-21T10:11:50;1.00;;;1.00;;
20699;SDS011;10511;51.232;9.420;2022-09-21T10:14:20;0.90;;;0.90;;
20699;SDS011;10511;51.232;9.420;2022-09-21T10:16:49;0.90;;;0.90;;
20699;SDS011;10511;51.232;9.420;2022-09-21T10:19:18;0.90;;;0.90;;
20699;SDS011;10511;51.232;9.420;2022-09-21T10:21:48;0.90;;;0.90;;
20699;SDS011;10511;51.232;9.420;2022-09-21T10:24:21;0.90;;;0.90;;
20699;SDS011;10511;51.232;9.420;2022-09-21T10:26:52;0.80;;;0.80;;
20699;SDS011;10511;51.232;9.420;2022-09-21T10:29:28;0.90;;;0.90;;
20699;SDS011;10511;51.232;9.420;2022-09-21T10:31:58;0.80;;;0.80;;
20699;SDS011;10511;51.232;9.420;2022-09-21T10:34:26;0.90;;;0.90;;
20699;SDS011;10511;51.232;9.420;2022-09-21T10:36:55;0.83;;;0.83;;
20699;SDS011;10511;51.232;9.420;2022-09-21T10:39:25;0.80;;;0.80;;
20699;SDS011;10511;51.232;9.420;2022-09-21T10:41:56;0.80;;;0.80;;
20699;SDS011;10511;51.232;9.420;2022-09-21T10:44:27;0.80;;;0.80;;
20699;SDS011;10511;51.232;9.420;2022-09-21T10:47:00;0.80;;;0.80;;
20699;SDS011;10511;51.232;9.420;2022-09-21T10:49:41;0.80;;;0.80;;
20699;SDS011;10511;51.232;9.420;2022-09-21T10:52:11;0.90;;;0.90;;
20699;SDS011;10511;51.232;9.420;2022-09-21T10:54:39;0.80;;;0.80;;
20699;SDS011;10511;51.232;9.420;2022-09-21T10:57:12;0.80;;;0.80;;
20699;SDS011;10511;51.232;9.420;2022-09-21T10:59:42;0.80;;;0.80;;
20699;SDS011;10511;51.232;9.420;2022-09-21T11:02:26;0.83;;;0.83;;
20699;SDS011;10511;51.232;9.420;2022-09-21T11:05:00;0.70;;;0.70;;
20699;SDS011;10511;51.232;9.420;2022-09-21T11:07:34;0.80;;;0.80;;
20699;SDS011;10511;51.232;9.420;2022-09-21T11:10:10;0.70;;;0.70;;
20699;SDS011;10511;51.232;9.420;2022-09-21T11:12:50;0.70;;;0.70;;
20699;SDS011;10511;51.232;9.420;2022-09-21T11:15:31;0.80;;;0.80;;
20699;SDS011;10511;51.232;9.420;2022-09-21T11:18:07;0.77;;;0.77;;
20699;SDS011;10511;51.232;9.420;2022-09-21T11:20:45;0.80;;;0.80;;
20699;SDS011;10511;51.232;9.420;2022-09-21T11:23:23;0.83;;;0.83;;
20699;SDS011;10511;51.232;9.420;2022-09-21T11:26:14;0.80;;;0.80;;
20699;SDS011;10511;51.232;9.420;2022-09-21T11:28:50;0.77;;;0.77;;
20699;SDS011;10511;51.232;9.420;2022-09-21T11:31:43;0.80;;;0.80;;
20699;SDS011;10511;51.232;9.420;2022-09-21T11:34:25;0.70;;;0.70;;
20699;SDS011;10511;51.232;9.420;2022-09-21T11:37:05;0.70;;;0.70;;
20699;SDS011;10511;51.232;9.420;2022-09-21T11:39:46;0.80;;;0.80;;
20699;SDS011;10511;51.232;9.420;2022-09-21T11:42:33;0.63;;;0.63;;
20699;SDS011;10511;51.232;9.420;2022-09-21T11:45:20;0.80;;;0.80;;
20699;SDS011;10511;51.232;9.420;2022-09-21T11:48:01;0.70;;;0.70;;
20699;SDS011;10511;51.232;9.420;2022-09-21T11:50:41;0.60;;;0.60;;
20699;SDS011;10511;51.232;9.420;2022-09-21T11:53:20;0.83;;;0.83;;
20699;SDS011;10511;51.232;9.420;2022-09-21T11:56:04;0.70;;;0.70;;
20699;SDS011;10511;51.232;9.420;2022-09-21T11:58:50;0.80;;;0.80;;
20699;SDS011;10511;51.232;9.420;2022-09-21T12:01:27;0.70;;;0.70;;
20699;SDS011;10511;51.232;9.420;2022-09-21T12:04:13;0.70;;;0.70;;
20699;SDS011;10511;51.232;9.420;2022-09-21T12:06:51;0.80;;;0.80;;
20699;SDS011;10511;51.232;9.420;2022-09-21T12:09:35;0.70;;;0.70;;
20699;SDS011;10511;51.232;9.420;2022-09-21T12:12:31;0.60;;;0.60;;
20699;SDS011;10511;51.232;9.420;2022-09-21T12:15:05;0.70;;;0.70;;
20699;SDS011;10511;51.232;9.420;2022-09-21T12:17:40;0.70;;;0.70;;
20699;SDS011;10511;51.232;9.420;2022-09-21T12:20:16;0.70;;;0.70;;
20699;SDS011;10511;51.232;9.420;2022-09-21T12:22:50;0.60;;;0.60;;
20699;SDS011;10511;51.232;9.420;2022-09-21T12:25:24;0.70;;;0.70;;
20699;SDS011;10511;51.232;9.420;2022-09-21T12:27:55;0.73;;;0.73;;
20699;SDS011;10511;51.232;9.420;2022-09-21T12:30:27;0.80;;;0.80;;
20699;SDS011;10511;51.232;9.420;2022-09-21T12:32:57;0.70;;;0.70;;
20699;SDS011;10511;51.232;9.420;2022-09-21T12:35:31;0.60;;;0.60;;
20699;SDS011;10511;51.232;9.420;2022-09-21T12:38:03;0.70;;;0.70;;
20699;SDS011;10511;51.232;9.420;2022-09-21T12:40:36;0.70;;;0.70;;
20699;SDS011;10511;51.232;9.420;2022-09-21T12:43:09;0.60;;;0.60;;
20699;SDS011;10511;51.232;9.420;2022-09-21T12:45:43;0.60;;;0.60;;
20699;SDS011;10511;51.232;9.420;2022-09-21T12:48:19;0.70;;;0.70;;
20699;SDS011;10511;51.232;9.420;2022-09-21T12:50:53;0.70;;;0.70;;
20699;SDS011;10511;51.232;9.420;2022-09-21T12:53:24;0.70;;;0.70;;
20699;SDS011;10511;51.232;9.420;2022-09-21T12:55:54;0.70;;;0.70;;
20699;SDS011;10511;51.232;9.420;2022-09-21T12:58:41;0.70;;;0.70;;
20699;SDS011;10511;51.232;9.420;2022-09-21T13:01:18;0.70;;;0.70;;
20699;SDS011;10511;51.232;9.420;2022-09-21T13:03:59;0.70;;;0.70;;
20699;SDS011;10511;51.232;9.420;2022-09-21T13:07:06;0.60;;;0.60;;
20699;SDS011;10511;51.232;9.420;2022-09-21T13:09:45;0.70;;;0.70;;
20699;SDS011;10511;51.232;9.420;2022-09-21T13:12:15;0.63;;;0.63;;
20699;SDS011;10511;51.232;9.420;2022-09-21T13:14:45;0.60;;;0.60;;
20699;SDS011;10511;51.232;9.420;2022-09-21T13:17:18;0.70;;;0.70;;
20699;SDS011;10511;51.232;9.420;2022-09-21T13:19:57;0.60;;;0.60;;
20699;SDS011;10511;51.232;9.420;2022-09-21T13:22:28;0.70;;;0.70;;
20699;SDS011;10511;51.232;9.420;2022-09-21T13:24:58;0.70;;;0.70;;
20699;SDS011;10511;51.232;9.420;2022-09-21T13:30:32;0.70;;;0.70;;
20699;SDS011;10511;51.232;9.420;2022-09-21T13:33:00;0.70;;;0.70;;
20699;SDS011;10511;51.232;9.420;2022-09-21T13:35:51;0.63;;;0.63;;
20699;SDS011;10511;51.232;9.420;2022-09-21T13:38:26;0.60;;;0.60;;
20699;SDS011;10511;51.232;9.420;2022-09-21T13:40:56;0.60;;;0.60;;
20699;SDS011;10511;51.232;9.420;2022-09-21T13:43:42;0.70;;;0.70;;
20699;SDS011;10511;51.232;9.420;2022-09-21T13:49:25;0.70;;;0.70;;
20699;SDS011;10511;51.232;9.420;2022-09-21T13:52:01;0.60;;;0.60;;
20699;SDS011;10511;51.232;9.420;2022-09-21T13:54:32;0.70;;;0.70;;
20699;SDS011;10511;51.232;9.420;2022-09-21T13:59:57;0.70;;;0.70;;
20699;SDS011;10511;51.232;9.420;2022-09-21T14:02:32;0.60;;;0.60;;
20699;SDS011;10511;51.232;9.420;2022-09-21T14:05:03;0.70;;;0.70;;
20699;SDS011;10511;51.232;9.420;2022-09-21T14:07:35;0.80;;;0.80;;
20699;SDS011;10511;51.232;9.420;2022-09-21T14:10:06;0.60;;;0.60;;
20699;SDS011;10511;51.232;9.420;2022-09-21T14:12:37;0.70;;;0.70;;
20699;SDS011;10511;51.232;9.420;2022-09-21T14:18:19;0.60;;;0.60;;
20699;SDS011;10511;51.232;9.420;2022-09-21T14:21:07;0.60;;;0.60;;
20699;SDS011;10511;51.232;9.420;2022-09-21T14:23:37;0.60;;;0.60;;
20699;SDS011;10511;51.232;9.420;2022-09-21T14:28:57;0.70;;;0.70;;
20699;SDS011;10511;51.232;9.420;2022-09-21T14:31:35;0.70;;;0.70;;
20699;SDS011;10511;51.232;9.420;2022-09-21T14:34:04;0.70;;;0.70;;
20699;SDS011;10511;51.232;9.420;2022-09-21T14:36:38;0.60;;;0.60;;
20699;SDS011;10511;51.232;9.420;2022-09-21T14:39:15;0.63;;;0.63;;
20699;SDS011;10511;51.232;9.420;2022-09-21T14:41:45;0.60;;;0.60;;
20699;SDS011;10511;51.232;9.420;2022-09-21T14:44:16;0.70;;;0.70;;
20699;SDS011;10511;51.232;9.420;2022-09-21T14:46:49;0.60;;;0.60;;
20699;SDS011;10511;51.232;9.420;2022-09-21T14:49:32;0.70;;;0.70;;
20699;SDS011;10511;51.232;9.420;2022-09-21T14:52:13;0.60;;;0.60;;
20699;SDS011;10511;51.232;9.420;2022-09-21T14:54:50;0.60;;;0.60;;
20699;SDS011;10511;51.232;9.420;2022-09-21T14:57:30;0.70;;;0.70;;
20699;SDS011;10511;51.232;9.420;2022-09-21T15:00:14;0.73;;;0.73;;
20699;SDS011;10511;51.232;9.420;2022-09-21T15:02:48;0.70;;;0.70;;
20699;SDS011;10511;51.232;9.420;2022-09-21T15:05:29;0.80;;;0.80;;
20699;SDS011;10511;51.232;9.420;2022-09-21T15:08:06;0.70;;;0.70;;
20699;SDS011;10511;51.232;9.420;2022-09-21T15:11:13;0.80;;;0.80;;
20699;SDS011;10511;51.232;9.420;2022-09-21T15:13:51;0.80;;;0.80;;
20699;SDS011;10511;51.232;9.420;2022-09-21T15:16:38;0.70;;;0.70;;
20699;SDS011;10511;51.232;9.420;2022-09-21T15:19:10;0.70;;;0.70;;
20699;SDS011;10511;51.232;9.420;2022-09-21T15:21:40;0.70;;;0.70;;
20699;SDS011;10511;51.232;9.420;2022-09-21T15:24:18;0.70;;;0.70;;
20699;SDS011;10511;51.232;9.420;2022-09-21T15:26:52;0.70;;;0.70;;
20699;SDS011;10511;51.232;9.420;2022-09-21T15:29:24;0.60;;;0.60;;
20699;SDS011;10511;51.232;9.420;2022-09-21T15:31:52;0.80;;;0.80;;
20699;SDS011;10511;51.232;9.420;2022-09-21T15:34:20;0.70;;;0.70;;
20699;SDS011;10511;51.232;9.420;2022-09-21T15:36:47;0.70;;;0.70;;
20699;SDS011;10511;51.232;9.420;2022-09-21T15:39:23;0.70;;;0.70;;